Time;durP1;ratioP1;P1;durP2;ratioP2;P2;SDS_P1;SDS_P2;PMS_P1;PMS_P2;Temp;Humidity;BMP_temperature;BMP_pressure;BME280_temperature;BME280_humidity;BME280_pressure;Samples;Min_cycle;Max_cycle;Signal;HPM_P1;HPM_P2
2022/11/13 00:01:28;;;;;;;;;;;;;;;;;;5066626;28;20089;-62
2022/11/13 00:03:54;;;;;;;;;;;;;;;;;;5067516;28;20349;-62
2022/11/13 00:06:20;;;;;;;;;;;;;;;;;;5067637;28;19924;-61
2022/11/13 00:08:46;;;;;;;;;;;;;;;;;;5066640;28;19932;-62
2022/11/13 00:11:12;;;;;;;;;;;;;;;;;;5068050;28;19978;-62
2022/11/13 00:13:38;;;;;;;;;;;;;;;;;;5066958;28;20311;-61
2022/11/13 00:16:04;;;;;;;;;;;;;;;;;;5066582;28;19936;-61
2022/11/13 00:18:30;;;;;;;;;;;;;;;;;;5067449;28;19986;-61
2022/11/13 00:20:56;;;;;;;;;;;;;;;;;;5066958;28;20310;-62
2022/11/13 00:23:22;;;;;;;;;;;;;;;;;;5065700;28;20066;-62
2022/11/13 00:25:47;;;;;;;;;;;;;;;;;;5067879;28;19929;-62
2022/11/13 00:28:13;;;;;;;;;;;;;;;;;;5067562;28;19925;-62
2022/11/13 00:30:39;;;;;;;;;;;;;;;;;;5064823;28;20043;-63
2022/11/13 00:33:05;;;;;;;;;;;;;;;;;;5065737;28;19924;-62
2022/11/13 00:35:31;;;;;;;;;;;;;;;;;;5064737;28;19939;-63
2022/11/13 00:37:57;;;;;;;;;;;;;;;;;;5096630;27;19924;-63
2022/11/13 00:40:23;;;;;;;;;;;;;;;;;;5065230;28;20348;-62
2022/11/13 00:42:49;;;;;;;;;;;;;;;;;;5063871;28;20019;-62
2022/11/13 00:45:14;;;;;;;;;;;;;;;;;;5062270;28;19928;-62
2022/11/13 00:47:40;;;;;;;;;;;;;;;;;;5064760;28;19925;-63
2022/11/13 00:50:06;;;;;;;;;;;;;;;;;;5064020;28;19929;-63
2022/11/13 00:52:32;;;;;;;;;;;;;;;;;;5064797;28;20002;-63
2022/11/13 00:54:58;;;;;;;;;;;;;;;;;;5064287;28;19924;-63
2022/11/13 00:57:24;;;;;;;;;;;;;;;;;;5063906;28;20298;-63
2022/11/13 00:59:50;;;;;;;;;;;;;;;;;;5064412;28;19932;-63
2022/11/13 01:02:16;;;;;;;;;;;;;;;;;;5062975;28;20192;-63
2022/11/13 01:04:42;;;;;;;;;;;;;;;;;;5063821;28;19924;-63
2022/11/13 01:07:08;;;;;;;;;;;;;;;;;;5064548;28;19935;-63
2022/11/13 01:09:33;;;;;;;;;;;;;;;;;;5064008;28;19945;-64
2022/11/13 01:11:59;;;;;;;;;;;;;;;;;;5063573;28;20137;-63
2022/11/13 01:14:25;;;;;;;;;;;;;;;;;;5064173;28;19936;-63
2022/11/13 01:16:51;;;;;;;;;;;;;;;;;;5064120;28;20321;-63
2022/11/13 01:19:17;;;;;;;;;;;;;;;;;;5064101;28;19924;-63
2022/11/13 01:21:43;;;;;;;;;;;;;;;;;;5064197;28;20197;-63
2022/11/13 01:24:09;;;;;;;;;;;;;;;;;;5065075;28;20002;-63
2022/11/13 01:26:35;;;;;;;;;;;;;;;;;;5063319;28;20010;-63
2022/11/13 01:29:01;;;;;;;;;;;;;;;;;;5068083;28;19978;-63
2022/11/13 01:31:27;;;;;;;;;;;;;;;;;;5064191;28;20000;-63
2022/11/13 01:33:52;;;;;;;;;;;;;;;;;;5063539;28;19936;-63
2022/11/13 01:36:18;;;;;;;;;;;;;;;;;;5064499;28;19982;-63
2022/11/13 01:38:44;;;;;;;;;;;;;;;;;;5064490;28;19929;-63
2022/11/13 01:41:10;;;;;;;;;;;;;;;;;;5064321;28;20361;-63
2022/11/13 01:43:36;;;;;;;;;;;;;;;;;;5063911;28;19983;-63
2022/11/13 01:46:02;;;;;;;;;;;;;;;;;;5063413;28;19956;-63
2022/11/13 01:48:28;;;;;;;;;;;;;;;;;;5062501;28;19925;-63
2022/11/13 01:50:54;;;;;;;;;;;;;;;;;;5063868;28;19938;-63
2022/11/13 01:53:20;;;;;;;;;;;;;;;;;;5063257;28;19928;-63
2022/11/13 01:55:45;;;;;;;;;;;;;;;;;;5063740;28;19932;-63
2022/11/13 01:58:11;;;;;;;;;;;;;;;;;;5063988;28;19931;-63
2022/11/13 02:00:37;;;;;;;;;;;;;;;;;;5063100;28;20414;-63
2022/11/13 02:03:03;;;;;;;;;;;;;;;;;;5064348;28;19928;-63
2022/11/13 02:05:29;;;;;;;;;;;;;;;;;;5064104;28;19978;-63
2022/11/13 02:07:55;;;;;;;;;;;;;;;;;;5062885;28;19924;-64
2022/11/13 02:10:21;;;;;;;;;;;;;;;;;;5063835;28;19924;-63
2022/11/13 02:12:47;;;;;;;;;;;;;;;;;;5064350;28;20343;-63
2022/11/13 02:15:13;;;;;;;;;;;;;;;;;;5063833;28;19974;-63
2022/11/13 02:17:38;;;;;;;;;;;;;;;;;;5062758;28;19933;-63
2022/11/13 02:20:04;;;;;;;;;;;;;;;;;;5063506;28;19936;-63
2022/11/13 02:22:30;;;;;;;;;;;;;;;;;;5062879;28;20393;-63
2022/11/13 02:24:56;;;;;;;;;;;;;;;;;;5063798;28;19982;-63
2022/11/13 02:27:22;;;;;;;;;;;;;;;;;;5063940;28;19928;-63
2022/11/13 02:29:48;;;;;;;;;;;;;;;;;;5063179;28;19931;-63
2022/11/13 02:32:14;;;;;;;;;;;;;;;;;;5064441;28;20433;-63
2022/11/13 02:34:40;;;;;;;;;;;;;;;;;;5063440;28;19924;-63
2022/11/13 02:37:06;;;;;;;;;;;;;;;;;;5063325;28;19925;-63
2022/11/13 02:39:32;;;;;;;;;;;;;;;;;;5063683;28;19982;-63
2022/11/13 02:41:57;;;;;;;;;;;;;;;;;;5063665;28;19924;-63
2022/11/13 02:44:23;;;;;;;;;;;;;;;;;;5063148;28;20292;-63
2022/11/13 02:46:49;;;;;;;;;;;;;;;;;;5063878;28;20011;-63
2022/11/13 02:49:15;;;;;;;;;;;;;;;;;;5060772;28;20069;-63
2022/11/13 02:51:41;;;;;;;;;;;;;;;;;;5062766;28;19985;-63
2022/11/13 02:54:07;;;;;;;;;;;;;;;;;;5063821;28;19924;-63
2022/11/13 02:56:33;;;;;;;;;;;;;;;;;;5063091;28;19925;-63
2022/11/13 02:58:59;;;;;;;;;;;;;;;;;;5063235;28;19932;-63
2022/11/13 03:01:25;;;;;;;;;;;;;;;;;;5063571;28;19935;-63
2022/11/13 03:03:51;;;;;;;;;;;;;;;;;;5062511;28;19924;-63
2022/11/13 03:06:16;;;;;;;;;;;;;;;;;;5064896;28;19924;-63
2022/11/13 03:08:42;;;;;;;;;;;;;;;;;;5067218;28;20016;-63
2022/11/13 03:11:08;;;;;;;;;;;;;;;;;;5066773;28;20062;-63
2022/11/13 03:13:34;;;;;;;;;;;;;;;;;;5067419;28;19947;-63
2022/11/13 03:16:00;;;;;;;;;;;;;;;;;;5100169;28;20515;-63
2022/11/13 03:18:26;;;;;;;;;;;;;;;;;;5066710;28;19946;-62
2022/11/13 03:20:52;;;;;;;;;;;;;;;;;;5067911;28;19924;-63
2022/11/13 03:23:18;;;;;;;;;;;;;;;;;;5067742;28;20286;-63
2022/11/13 03:25:44;;;;;;;;;;;;;;;;;;5066900;28;19935;-63
2022/11/13 03:28:10;;;;;;;;;;;;;;;;;;5068124;28;19928;-63
2022/11/13 03:30:36;;;;;;;;;;;;;;;;;;5067829;28;19934;-63
2022/11/13 03:33:02;;;;;;;;;;;;;;;;;;5066965;28;20366;-63
2022/11/13 03:35:28;;;;;;;;;;;;;;;;;;5067183;28;19928;-63
2022/11/13 03:37:54;;;;;;;;;;;;;;;;;;5067302;28;20005;-63
2022/11/13 03:40:20;;;;;;;;;;;;;;;;;;5066930;28;19928;-63
2022/11/13 03:42:46;;;;;;;;;;;;;;;;;;5067299;28;20507;-63
2022/11/13 03:45:11;;;;;;;;;;;;;;;;;;5067879;28;19963;-63
2022/11/13 03:47:37;;;;;;;;;;;;;;;;;;5066647;28;19925;-62
2022/11/13 03:50:03;;;;;;;;;;;;;;;;;;5067163;28;19938;-63
2022/11/13 03:52:29;;;;;;;;;;;;;;;;;;5066829;28;20511;-63
2022/11/13 03:54:55;;;;;;;;;;;;;;;;;;5066648;28;19925;-63
2022/11/13 03:57:21;;;;;;;;;;;;;;;;;;5067173;28;19932;-63
2022/11/13 03:59:47;;;;;;;;;;;;;;;;;;5099051;27;20311;-63
2022/11/13 04:02:13;;;;;;;;;;;;;;;;;;5067676;28;19935;-63
2022/11/13 04:04:39;;;;;;;;;;;;;;;;;;5099197;28;19971;-63
2022/11/13 04:07:04;;;;;;;;;;;;;;;;;;5064830;28;20558;-62
2022/11/13 04:09:30;;;;;;;;;;;;;;;;;;5067168;28;19925;-63
2022/11/13 04:11:56;;;;;;;;;;;;;;;;;;5066757;28;19925;-63
2022/11/13 04:14:22;;;;;;;;;;;;;;;;;;5066421;28;19932;-63
2022/11/13 04:16:48;;;;;;;;;;;;;;;;;;5067030;28;19929;-63
2022/11/13 04:19:14;;;;;;;;;;;;;;;;;;5067697;28;20474;-63
2022/11/13 04:21:40;;;;;;;;;;;;;;;;;;5065632;28;19932;-63
2022/11/13 04:24:06;;;;;;;;;;;;;;;;;;5067024;28;19924;-63
2022/11/13 04:26:32;;;;;;;;;;;;;;;;;;5066572;28;19932;-63
2022/11/13 04:28:58;;;;;;;;;;;;;;;;;;5064468;28;19925;-63
2022/11/13 04:31:24;;;;;;;;;;;;;;;;;;5066222;28;19935;-63
2022/11/13 04:33:49;;;;;;;;;;;;;;;;;;5066414;28;20454;-63
2022/11/13 04:36:15;;;;;;;;;;;;;;;;;;5066183;28;20387;-63
2022/11/13 04:38:41;;;;;;;;;;;;;;;;;;5065782;28;19935;-63
2022/11/13 04:43:52;;;;;;;;;;;;;;;;;;5065275;28;19925;-63
2022/11/13 04:46:18;;;;;;;;;;;;;;;;;;5066793;28;19924;-63
2022/11/13 04:48:44;;;;;;;;;;;;;;;;;;5066265;28;19924;-63
2022/11/13 04:51:10;;;;;;;;;;;;;;;;;;5066209;28;20324;-63
2022/11/13 04:53:35;;;;;;;;;;;;;;;;;;5066118;28;19969;-63
2022/11/13 04:56:01;;;;;;;;;;;;;;;;;;5064693;28;19924;-63
2022/11/13 04:58:27;;;;;;;;;;;;;;;;;;5065602;28;19924;-63
2022/11/13 05:00:53;;;;;;;;;;;;;;;;;;5065926;28;19971;-63
2022/11/13 05:03:19;;;;;;;;;;;;;;;;;;5065250;28;19936;-63
2022/11/13 05:05:45;;;;;;;;;;;;;;;;;;5065702;28;19970;-64
2022/11/13 05:08:11;;;;;;;;;;;;;;;;;;5066418;28;20322;-63
2022/11/13 05:10:37;;;;;;;;;;;;;;;;;;5064703;28;20019;-63
2022/11/13 05:13:03;;;;;;;;;;;;;;;;;;5065534;28;20011;-63
2022/11/13 05:15:29;;;;;;;;;;;;;;;;;;5065820;28;19974;-63
2022/11/13 05:17:55;;;;;;;;;;;;;;;;;;5064630;28;20576;-62
2022/11/13 05:20:21;;;;;;;;;;;;;;;;;;5066003;28;20282;-63
2022/11/13 05:22:47;;;;;;;;;;;;;;;;;;5065578;28;19925;-62
2022/11/13 05:25:12;;;;;;;;;;;;;;;;;;5067485;28;19931;-63
2022/11/13 05:27:38;;;;;;;;;;;;;;;;;;5065273;28;19928;-63
2022/11/13 05:30:04;;;;;;;;;;;;;;;;;;5064922;28;20783;-62
2022/11/13 05:32:30;;;;;;;;;;;;;;;;;;5064247;28;19933;-63
2022/11/13 05:34:56;;;;;;;;;;;;;;;;;;5065305;28;20354;-63
2022/11/13 05:37:22;;;;;;;;;;;;;;;;;;5065467;28;19924;-63
2022/11/13 05:39:48;;;;;;;;;;;;;;;;;;5064375;28;19925;-63
2022/11/13 05:42:14;;;;;;;;;;;;;;;;;;5066221;28;20295;-63
2022/11/13 05:44:39;;;;;;;;;;;;;;;;;;5064994;28;20027;-63
2022/11/13 05:47:05;;;;;;;;;;;;;;;;;;5064708;28;19929;-63
2022/11/13 05:49:31;;;;;;;;;;;;;;;;;;5064674;28;19925;-63
2022/11/13 05:51:57;;;;;;;;;;;;;;;;;;5064957;28;19970;-63
2022/11/13 05:54:23;;;;;;;;;;;;;;;;;;5064108;28;19978;-63
2022/11/13 05:56:49;;;;;;;;;;;;;;;;;;5064459;28;20527;-62
2022/11/13 05:59:15;;;;;;;;;;;;;;;;;;5065254;28;19931;-63
2022/11/13 06:01:41;;;;;;;;;;;;;;;;;;5064502;28;19924;-62
2022/11/13 06:04:07;;;;;;;;;;;;;;;;;;5067071;28;19924;-63
2022/11/13 06:06:33;;;;;;;;;;;;;;;;;;5063891;28;19963;-64
2022/11/13 06:08:58;;;;;;;;;;;;;;;;;;5064726;28;19932;-63
2022/11/13 06:11:24;;;;;;;;;;;;;;;;;;5096738;28;19935;-63
2022/11/13 06:13:50;;;;;;;;;;;;;;;;;;5064168;28;19932;-63
2022/11/13 06:16:16;;;;;;;;;;;;;;;;;;5065545;28;19931;-63
2022/11/13 06:18:42;;;;;;;;;;;;;;;;;;5064348;28;19924;-63
2022/11/13 06:21:08;;;;;;;;;;;;;;;;;;5064683;28;19925;-63
2022/11/13 06:23:34;;;;;;;;;;;;;;;;;;5064615;28;19935;-63
2022/11/13 06:26:00;;;;;;;;;;;;;;;;;;5064720;28;20303;-63
2022/11/13 06:28:26;;;;;;;;;;;;;;;;;;5064538;28;20460;-63
2022/11/13 06:30:52;;;;;;;;;;;;;;;;;;5064091;28;19928;-63
2022/11/13 06:33:18;;;;;;;;;;;;;;;;;;5065837;28;19929;-63
2022/11/13 06:35:44;;;;;;;;;;;;;;;;;;5065196;28;19947;-63
2022/11/13 06:38:09;;;;;;;;;;;;;;;;;;5097398;28;19981;-62
2022/11/13 06:40:35;;;;;;;;;;;;;;;;;;5066362;28;19929;-63
2022/11/13 06:43:01;;;;;;;;;;;;;;;;;;5067914;28;19928;-63
2022/11/13 06:45:27;;;;;;;;;;;;;;;;;;5068327;28;20519;-63
2022/11/13 06:47:53;;;;;;;;;;;;;;;;;;5068224;28;19938;-63
2022/11/13 06:50:19;;;;;;;;;;;;;;;;;;5068474;28;19928;-62
2022/11/13 06:52:45;;;;;;;;;;;;;;;;;;5068132;28;20047;-63
2022/11/13 06:55:11;;;;;;;;;;;;;;;;;;5069053;28;19924;-63
2022/11/13 06:57:37;;;;;;;;;;;;;;;;;;5067370;28;19925;-63
2022/11/13 07:00:03;;;;;;;;;;;;;;;;;;5068073;28;20297;-62
2022/11/13 07:02:29;;;;;;;;;;;;;;;;;;5068060;28;20386;-63
2022/11/13 07:04:55;;;;;;;;;;;;;;;;;;5099895;27;19929;-63
2022/11/13 07:07:21;;;;;;;;;;;;;;;;;;5072655;28;19986;-63
2022/11/13 07:09:46;;;;;;;;;;;;;;;;;;5065952;28;19943;-63
2022/11/13 07:12:12;;;;;;;;;;;;;;;;;;5070724;28;19925;-63
2022/11/13 07:14:38;;;;;;;;;;;;;;;;;;5067975;28;19928;-63
2022/11/13 07:17:04;;;;;;;;;;;;;;;;;;5067723;28;20375;-63
2022/11/13 07:19:30;;;;;;;;;;;;;;;;;;5067883;28;20386;-63
2022/11/13 07:21:56;;;;;;;;;;;;;;;;;;5099192;28;19924;-63
2022/11/13 07:24:22;;;;;;;;;;;;;;;;;;5066278;28;19958;-63
2022/11/13 07:26:48;;;;;;;;;;;;;;;;;;5067152;28;19929;-63
2022/11/13 07:29:14;;;;;;;;;;;;;;;;;;5068944;28;19924;-62
2022/11/13 07:31:40;;;;;;;;;;;;;;;;;;5067302;28;19974;-63
2022/11/13 07:34:06;;;;;;;;;;;;;;;;;;5066400;28;19967;-63
2022/11/13 07:36:32;;;;;;;;;;;;;;;;;;5066773;28;20011;-63
2022/11/13 07:38:58;;;;;;;;;;;;;;;;;;5066822;28;19938;-63
2022/11/13 07:41:24;;;;;;;;;;;;;;;;;;5067602;28;19978;-63
2022/11/13 07:43:49;;;;;;;;;;;;;;;;;;5067434;28;20314;-63
2022/11/13 07:46:15;;;;;;;;;;;;;;;;;;5067250;28;19936;-63
2022/11/13 07:48:41;;;;;;;;;;;;;;;;;;5072185;28;19933;-62
2022/11/13 07:51:07;;;;;;;;;;;;;;;;;;5067412;28;20110;-63
2022/11/13 07:53:34;;;;;;;;;;;;;;;;;;5065625;28;19928;-63
2022/11/13 07:56:00;;;;;;;;;;;;;;;;;;5067054;28;19932;-63
2022/11/13 07:58:26;;;;;;;;;;;;;;;;;;5069980;28;19977;-62
2022/11/13 08:00:52;;;;;;;;;;;;;;;;;;5065958;28;19928;-63
2022/11/13 08:03:18;;;;;;;;;;;;;;;;;;5068049;28;19964;-63
2022/11/13 08:05:44;;;;;;;;;;;;;;;;;;5066869;28;19932;-63
2022/11/13 08:08:10;;;;;;;;;;;;;;;;;;5066413;28;19936;-63
2022/11/13 08:10:36;;;;;;;;;;;;;;;;;;5066849;28;19928;-63
2022/11/13 08:13:02;;;;;;;;;;;;;;;;;;5066007;28;19928;-63
2022/11/13 08:15:28;;;;;;;;;;;;;;;;;;5066854;28;19924;-63
2022/11/13 08:17:54;;;;;;;;;;;;;;;;;;5066641;28;19925;-63
2022/11/13 08:20:20;;;;;;;;;;;;;;;;;;5066370;28;20048;-63
2022/11/13 08:22:45;;;;;;;;;;;;;;;;;;5066967;28;20323;-63
2022/11/13 08:25:11;;;;;;;;;;;;;;;;;;5066963;28;19929;-63
2022/11/13 08:27:37;;;;;;;;;;;;;;;;;;5065735;28;20031;-63
2022/11/13 08:30:03;;;;;;;;;;;;;;;;;;5066368;28;20767;-63
2022/11/13 08:32:29;;;;;;;;;;;;;;;;;;5066819;28;19954;-63
2022/11/13 08:34:55;;;;;;;;;;;;;;;;;;5100664;27;19967;-63
2022/11/13 08:37:21;;;;;;;;;;;;;;;;;;5066675;28;19983;-63
2022/11/13 08:39:47;;;;;;;;;;;;;;;;;;5065786;28;19925;-63
2022/11/13 08:42:13;;;;;;;;;;;;;;;;;;5066255;28;19931;-63
2022/11/13 08:44:38;;;;;;;;;;;;;;;;;;5065867;28;20283;-63
2022/11/13 08:47:04;;;;;;;;;;;;;;;;;;5067057;28;19928;-63
2022/11/13 08:49:30;;;;;;;;;;;;;;;;;;5065271;28;19928;-63
2022/11/13 08:51:56;;;;;;;;;;;;;;;;;;5065813;28;19936;-63
2022/11/13 08:54:22;;;;;;;;;;;;;;;;;;5066170;28;20325;-63
2022/11/13 08:56:48;;;;;;;;;;;;;;;;;;5064720;28;19939;-63
2022/11/13 08:59:14;;;;;;;5.88;4.35;;;;;;;;;;5068260;28;20057;-63
2022/11/13 09:01:40;;;;;;;4.57;4.15;;;;;;;;;;5065223;28;20041;-63
2022/11/13 09:04:06;;;;;;;5.32;4.82;;;;;;;;;;5065130;28;20059;-63
2022/11/13 09:06:32;;;;;;;5.07;4.68;;;;;;;;;;5066330;28;20070;-63
2022/11/13 09:08:59;;;;;;;4.18;3.80;;;;;;;;;;5064126;28;20503;-63
2022/11/13 09:11:26;;;;;;;5.22;4.72;;;;;;;;;;5060339;28;20065;-63
2022/11/13 09:13:52;;;;;;;;;;;;;;;;;;5060862;28;20057;-54
2022/11/13 09:16:18;;;;;;;6.70;6.10;;;;;;;;;;5062081;28;20417;-64
2022/11/13 09:18:44;;;;;;;;;;;;;;;;;;5065593;28;20040;-58
2022/11/13 09:21:10;;;;;;;;;;;;;;;;;;5074182;28;19920;-62
2022/11/13 09:23:36;;;;;;;;;;;;;;;;;;5066259;28;20478;-61
2022/11/13 09:26:02;;;;;;;;;;;;;;;;;;5078257;28;20245;-61
2022/11/13 09:28:28;;;;;;;;;;;;;;;;;;5066477;28;19972;-62
2022/11/13 09:30:54;;;;;;;5.70;5.20;;;;;;;;;;5097801;28;19920;-62
2022/11/13 09:33:20;;;;;;;6.82;6.15;;;;;;;;;;5066250;28;20607;-62
2022/11/13 09:35:46;;;;;;;6.55;5.95;;;;;;;;;;5065878;28;20041;-61
2022/11/13 09:38:14;;;;;;;6.25;5.65;;;;;;;;;;5067989;28;20037;-62
2022/11/13 09:40:47;;;;;;;6.93;6.32;;;;;;;;;;5066006;28;20183;-62
2022/11/13 09:43:20;;;;;;;6.82;6.10;;;;;;;;;;5070637;28;20579;-62
2022/11/13 09:45:46;;;;;;;6.22;5.63;;;;;;;;;;5046152;28;20048;-62
2022/11/13 09:48:25;;;;;;;5.93;5.43;;;;;;;;;;5067847;28;20131;-62
2022/11/13 09:50:51;;;;;;;6.30;5.80;;;;;;;;;;5065541;28;20040;-62
2022/11/13 09:53:17;;;;;;;5.00;4.60;;;;;;;;;;5065913;28;20040;-62
2022/11/13 09:56:03;;;;;;;4.50;4.03;;;;;;;;;;5066509;28;20063;-62
2022/11/13 09:58:38;;;;;;;3.58;3.28;;;;;;;;;;5062535;28;20040;-61
2022/11/13 10:01:04;;;;;;;4.50;4.10;;;;;;;;;;5069432;28;20155;-62
2022/11/13 10:03:40;;;;;;;4.45;4.05;;;;;;;;;;5067000;28;20422;-62
2022/11/13 10:06:26;;;;;;;4.43;4.03;;;;;;;;;;5064831;28;20040;-62
2022/11/13 10:08:52;;;;;;;;;;;;;;;;;;5066759;28;20040;-62
2022/11/13 10:11:18;;;;;;;;;;;;;;;;;;5073311;28;20302;-62
2022/11/13 10:13:44;;;;;;;;;;;;;;;;;;5066066;28;20839;-62
2022/11/13 10:16:10;;;;;;;;;;;;;;;;;;5065990;28;19931;-62
2022/11/13 10:18:36;;;;;;;;;;;;;;;;;;5064955;28;19924;-62
2022/11/13 10:21:02;;;;;;;;;;;;;;;;;;5063997;28;19939;-62
2022/11/13 10:23:30;;;;;;;4.80;4.40;;;;;;;;;;5068751;28;20489;-62
2022/11/13 10:25:59;;;;;;;4.82;4.32;;;;;;;;;;5062982;28;20041;-62
2022/11/13 10:28:26;;;;;;;4.32;3.92;;;;;;;;;;5063853;28;20538;-63
2022/11/13 10:30:52;;;;;;;4.57;4.18;;;;;;;;;;5062935;28;20047;-61
2022/11/13 10:33:19;;;;;;;5.10;4.68;;;;;;;;;;5062863;28;20040;-61
2022/11/13 10:35:46;;;;;;;4.15;3.85;;;;;;;;;;5071375;28;20128;-61
2022/11/13 10:38:22;;;;;;;5.05;4.65;;;;;;;;;;5072353;28;20131;-61
2022/11/13 10:40:48;;;;;;;6.20;5.70;;;;;;;;;;5067306;28;20048;-61
2022/11/13 10:43:19;;;;;;;6.35;5.78;;;;;;;;;;5070940;28;20041;-61
2022/11/13 10:45:59;;;;;;;4.93;4.53;;;;;;;;;;5066158;28;20564;-61
2022/11/13 10:48:27;;;;;;;4.07;3.78;;;;;;;;;;5063768;28;20518;-61
2022/11/13 10:50:54;;;;;;;6.80;4.82;;;;;;;;;;5064204;28;20055;-61
2022/11/13 10:53:20;;;;;;;5.25;4.78;;;;;;;;;;5063500;28;20040;-61
2022/11/13 10:55:49;;;;;;;5.35;4.90;;;;;;;;;;5067070;28;20507;-61
2022/11/13 10:58:16;;;;;;;4.70;4.30;;;;;;;;;;5064487;28;20037;-61
2022/11/13 11:00:46;;;;;;;8.27;5.22;;;;;;;;;;5071291;28;20040;-61
2022/11/13 11:03:32;;;;;;;4.78;4.38;;;;;;;;;;5064951;28;20097;-61
2022/11/13 11:05:59;;;;;;;5.10;4.68;;;;;;;;;;5067140;28;20063;-61
2022/11/13 11:08:29;;;;;;;4.85;4.45;;;;;;;;;;5063657;28;20048;-62
2022/11/13 11:13:44;;;;;;;4.88;4.50;;;;;;;;;;5065065;28;20052;-61
2022/11/13 11:16:21;;;;;;;6.22;4.57;;;;;;;;;;5060356;28;20095;-61
2022/11/13 11:18:51;;;;;;;5.05;4.65;;;;;;;;;;5063714;28;20586;-61
2022/11/13 11:21:22;;;;;;;5.43;4.93;;;;;;;;;;5064625;28;20044;-61
2022/11/13 11:23:57;;;;;;;4.95;4.50;;;;;;;;;;5063602;28;20040;-61
2022/11/13 11:26:26;;;;;;;5.28;4.80;;;;;;;;;;5063432;28;20048;-61
2022/11/13 11:29:11;;;;;;;4.80;4.40;;;;;;;;;;5071609;28;20044;-62
2022/11/13 11:31:37;;;;;;;;;;;;;;;;;;5068130;28;20286;-62
2022/11/13 11:34:03;;;;;;;;;;;;;;;;;;5067536;28;19936;-62
2022/11/13 11:36:29;;;;;;;;;;;;;;;;;;5067942;28;20038;-62
2022/11/13 11:38:55;;;;;;;;;;;;;;;;;;5073166;28;19978;-61
2022/11/13 11:41:21;;;;;;;;;;;;;;;;;;5068373;28;19924;-61
2022/11/13 11:43:47;;;;;;;;;;;;;;;;;;5068569;28;19928;-62
2022/11/13 11:46:13;;;;;;;;;;;;;;;;;;5068386;28;19936;-61
2022/11/13 11:48:39;;;;;;;;;;;;;;;;;;5067091;28;19932;-61
2022/11/13 11:51:05;;;;;;;;;;;;;;;;;;5067337;28;19938;-61
2022/11/13 11:53:31;;;;;;;;;;;;;;;;;;5067732;28;19924;-61
2022/11/13 11:55:58;;;;;;;;;;;;;;;;;;5068143;28;19924;-61
2022/11/13 11:58:24;;;;;;;;;;;;;;;;;;5067538;28;19924;-61
2022/11/13 12:00:50;;;;;;;;;;;;;;;;;;5069068;28;21707;-61
2022/11/13 12:03:16;;;;;;;;;;;;;;;;;;5068812;28;19924;-61
2022/11/13 12:05:44;;;;;;;;;;;;;;;;;;5068938;28;20514;-61
2022/11/13 12:08:09;;;;;;;;;;;;;;;;;;5068120;28;19928;-61
2022/11/13 12:10:35;;;;;;;;;;;;;;;;;;5068058;28;19924;-61
2022/11/13 12:13:01;;;;;;;;;;;;;;;;;;5067301;28;19986;-61
2022/11/13 12:15:28;;;;;;;;;;;;;;;;;;5067802;28;19925;-61
2022/11/13 12:18:09;;;;;;;5.75;5.25;;;;;;;;;;5067066;28;19932;-61
2022/11/13 12:20:38;;;;;;;5.57;5.07;;;;;;;;;;5066668;28;20032;-61
2022/11/13 12:23:30;;;;;;;5.43;4.93;;;;;;;;;;5067164;28;20128;-61
2022/11/13 12:26:08;;;;;;;4.95;4.55;;;;;;;;;;5064156;28;20060;-61
2022/11/13 12:28:49;;;;;;;4.05;3.75;;;;;;;;;;5066509;28;20098;-61
2022/11/13 12:31:18;;;;;;;4.82;4.43;;;;;;;;;;5067732;28;20048;-61
2022/11/13 12:33:50;;;;;;;4.05;3.75;;;;;;;;;;5066497;28;20186;-61
2022/11/13 12:36:17;;;;;;;4.78;4.38;;;;;;;;;;5068172;28;20045;-61
2022/11/13 12:38:58;;;;;;;3.63;3.33;;;;;;;;;;5068441;28;20054;-62
2022/11/13 12:41:37;;;;;;;4.40;4.00;;;;;;;;;;5066331;28;20045;-61
2022/11/13 12:44:23;;;;;;;4.78;4.32;;;;;;;;;;5066849;28;20044;-61
2022/11/13 12:46:50;;;;;;;4.93;4.53;;;;;;;;;;5065898;28;20048;-61
2022/11/13 12:49:22;;;;;;;4.05;3.75;;;;;;;;;;5066859;28;20056;-61
2022/11/13 12:51:59;;;;;;;3.85;3.55;;;;;;;;;;5066667;28;20073;-61
2022/11/13 12:54:29;;;;;;;4.00;3.53;;;;;;;;;;5065695;28;20131;-61
2022/11/13 12:57:13;;;;;;;3.85;3.55;;;;;;;;;;5066618;28;20045;-62
2022/11/13 12:59:41;;;;;;;3.75;3.35;;;;;;;;;;5069355;28;20044;-61
2022/11/13 13:02:07;;;;;;;4.30;3.92;;;;;;;;;;5070144;28;20043;-63
2022/11/13 13:04:52;;;;;;;3.78;3.40;;;;;;;;;;5066109;28;20048;-63
2022/11/13 13:07:36;;;;;;;3.42;3.13;;;;;;;;;;5066513;28;20506;-62
2022/11/13 13:10:21;;;;;;;3.75;3.42;;;;;;;;;;5066080;28;20059;-64
2022/11/13 13:13:02;;;;;;;3.35;3.03;;;;;;;;;;5065199;28;20119;-63
2022/11/13 13:15:28;;;;;;;3.00;2.80;;;;;;;;;;5065715;28;20051;-63
2022/11/13 13:18:06;;;;;;;3.15;2.85;;;;;;;;;;5065807;28;20040;-64
2022/11/13 13:20:34;;;;;;;3.60;3.30;;;;;;;;;;5066155;28;20132;-64
2022/11/13 13:23:01;;;;;;;3.65;3.33;;;;;;;;;;5065346;28;20055;-64
2022/11/13 13:25:28;;;;;;;3.58;3.28;;;;;;;;;;5066239;28;20036;-64
2022/11/13 13:27:58;;;;;;;2.95;2.50;;;;;;;;;;5065252;28;20044;-63
2022/11/13 13:30:25;;;;;;;3.15;2.88;;;;;;;;;;5065858;28;20082;-63
2022/11/13 13:33:15;;;;;;;4.38;3.97;;;;;;;;;;5067197;28;20089;-63
2022/11/13 13:35:41;;;;;;;4.60;4.10;;;;;;;;;;5063232;28;20047;-64
2022/11/13 13:38:20;;;;;;;5.28;3.90;;;;;;;;;;5065296;28;20123;-63
2022/11/13 13:41:09;;;;;;;4.00;3.70;;;;;;;;;;5066282;28;20123;-63
2022/11/13 13:43:42;;;;;;;3.67;3.38;;;;;;;;;;5064877;28;20075;-64
2022/11/13 13:46:08;;;;;;;5.03;3.90;;;;;;;;;;5065862;28;20127;-64
2022/11/13 13:48:37;;;;;;;4.68;4.28;;;;;;;;;;5065584;28;20136;-64
2022/11/13 13:51:04;;;;;;;3.63;3.33;;;;;;;;;;5064358;28;20119;-63
2022/11/13 13:53:32;;;;;;;3.80;3.50;;;;;;;;;;5065939;28;20048;-63
2022/11/13 13:55:58;;;;;;;4.80;4.10;;;;;;;;;;5057401;28;20040;-64
2022/11/13 13:58:29;;;;;;;5.03;4.50;;;;;;;;;;5063308;28;20682;-64
2022/11/13 14:00:59;;;;;;;5.15;4.45;;;;;;;;;;5065107;28;20040;-63
2022/11/13 14:03:26;;;;;;;5.18;4.45;;;;;;;;;;5065959;28;20047;-63
2022/11/13 14:05:53;;;;;;;4.65;4.25;;;;;;;;;;5065178;28;21257;-64
2022/11/13 14:08:19;;;;;;;4.43;4.03;;;;;;;;;;5070928;28;20063;-63
2022/11/13 14:10:47;;;;;;;3.88;3.58;;;;;;;;;;5064975;28;20295;-64
2022/11/13 14:13:14;;;;;;;4.10;3.70;;;;;;;;;;5064062;28;20495;-64
2022/11/13 14:15:40;;;;;;;5.00;4.50;;;;;;;;;;5064849;28;20080;-63
2022/11/13 14:18:06;;;;;;;4.35;3.95;;;;;;;;;;5065854;28;20048;-64
2022/11/13 14:20:49;;;;;;;6.30;3.80;;;;;;;;;;5065207;28;20123;-63
2022/11/13 14:23:18;;;;;;;5.22;3.95;;;;;;;;;;5063302;28;20557;-64
2022/11/13 14:25:44;;;;;;;4.07;3.78;;;;;;;;;;5063993;28;20487;-63
2022/11/13 14:28:18;;;;;;;5.10;4.15;;;;;;;;;;5065439;28;20052;-64
2022/11/13 14:30:44;;;;;;;3.40;3.10;;;;;;;;;;5065466;28;20044;-64
2022/11/13 14:33:13;;;;;;;3.42;3.15;;;;;;;;;;5065377;28;20055;-64
2022/11/13 14:35:39;;;;;;;3.35;2.80;;;;;;;;;;5068426;28;20127;-65
2022/11/13 14:38:18;;;;;;;3.45;3.05;;;;;;;;;;5065856;28;20052;-64
2022/11/13 14:40:46;;;;;;;2.92;2.72;;;;;;;;;;5064986;28;20119;-64
2022/11/13 14:43:18;;;;;;;3.15;2.88;;;;;;;;;;5065208;28;20051;-61
2022/11/13 14:45:52;;;;;;;2.65;2.45;;;;;;;;;;5063611;28;20499;-64
2022/11/13 14:48:22;;;;;;;2.78;2.58;;;;;;;;;;5071684;28;20045;-64
2022/11/13 14:51:11;;;;;;;2.65;2.42;;;;;;;;;;5075264;28;20040;-64
2022/11/13 14:53:38;;;;;;;2.47;2.28;;;;;;;;;;5060510;28;20048;-64
2022/11/13 14:56:09;;;;;;;2.00;1.90;;;;;;;;;;5064680;28;20082;-63
2022/11/13 14:58:42;;;;;;;1.70;1.60;;;;;;;;;;5064744;28;20049;-64
2022/11/13 15:01:16;;;;;;;2.83;2.60;;;;;;;;;;5045519;28;20059;-65
2022/11/13 15:03:42;;;;;;;;;;;;;;;;;;5049647;28;20086;-64
2022/11/13 15:06:08;;;;;;;;;;;;;;;;;;5068052;28;19924;-66
2022/11/13 15:08:34;;;;;;;;;;;;;;;;;;5067485;28;19935;-65
2022/11/13 15:11:00;;;;;;;;;;;;;;;;;;5067616;28;19932;-64
2022/11/13 15:13:26;;;;;;;;;;;;;;;;;;5067867;28;19924;-64
2022/11/13 15:15:52;;;;;;;;;;;;;;;;;;5068465;28;19974;-65
2022/11/13 15:18:18;;;;;;;;;;;;;;;;;;5070083;28;20390;-65
2022/11/13 15:20:44;;;;;;;;;;;;;;;;;;5059465;28;19921;-64
2022/11/13 15:23:10;;;;;;;;;;;;;;;;;;5065306;28;20027;-65
2022/11/13 15:25:36;;;;;;;3.58;3.28;;;;;;;;;;5069207;28;20391;-64
2022/11/13 15:28:02;;;;;;;4.15;2.90;;;;;;;;;;5068479;28;20044;-65
2022/11/13 15:30:28;;;;;;;6.53;3.92;;;;;;;;;;5067345;28;20051;-65
2022/11/13 15:32:56;;;;;;;4.28;3.85;;;;;;;;;;5068091;28;20089;-65
2022/11/13 15:35:22;;;;;;;3.60;3.30;;;;;;;;;;5068590;28;20507;-65
2022/11/13 15:37:48;;;;;;;3.30;3.00;;;;;;;;;;5067473;28;20044;-65
2022/11/13 15:40:16;;;;;;;3.65;3.10;;;;;;;;;;5068600;28;20036;-65
2022/11/13 15:42:42;;;;;;;4.30;3.50;;;;;;;;;;5075618;28;20469;-65
2022/11/13 15:45:13;;;;;;;4.38;3.60;;;;;;;;;;5074973;28;20099;-65
2022/11/13 15:47:39;;;;;;;3.33;3.05;;;;;;;;;;5057084;28;20303;-65
2022/11/13 15:50:05;;;;;;;5.82;3.50;;;;;;;;;;5064244;28;20495;-65
2022/11/13 15:52:33;;;;;;;3.47;3.10;;;;;;;;;;5065646;28;20056;-65
2022/11/13 15:54:59;;;;;;;3.67;3.38;;;;;;;;;;5066554;28;20044;-65
2022/11/13 15:57:25;;;;;;;;;;;;;;;;;;5066871;28;20299;-65
2022/11/13 15:59:50;;;;;;;;;;;;;;;;;;5067265;28;19925;-65
2022/11/13 16:02:17;;;;;;;3.42;3.13;;;;;;;;;;5067044;28;19931;-65
2022/11/13 16:04:43;;;;;;;3.60;3.30;;;;;;;;;;5066325;28;20079;-65
2022/11/13 16:07:15;;;;;;;3.42;3.13;;;;;;;;;;5067260;28;20597;-62
2022/11/13 16:09:41;;;;;;;3.30;2.90;;;;;;;;;;5066804;28;20391;-63